Time;durP1;ratioP1;P1;durP2;ratioP2;P2;SDS_P1;SDS_P2;PMS_P1;PMS_P2;Temp;Humidity;BMP_temperature;BMP_pressure;BME280_temperature;BME280_humidity;BME280_pressure;Samples;Min_cycle;Max_cycle;Signal;HPM_P1;HPM_P2
2021/10/14 00:01:11;;;;;;;2.63;1.70;;;9.50;99.90;;;;;;4985852;28;20196;-74
2021/10/14 00:03:36;;;;;;;2.87;1.67;;;9.50;99.90;;;;;;4986081;28;20198;-74
2021/10/14 00:06:02;;;;;;;3.23;1.63;;;9.50;99.90;;;;;;4986338;28;20227;-75
2021/10/14 00:08:28;;;;;;;4.37;1.93;;;9.50;99.90;;;;;;4985547;28;20237;-75
2021/10/14 00:10:53;;;;;;;4.80;1.70;;;9.60;99.90;;;;;;4985041;28;20184;-74
2021/10/14 00:13:19;;;;;;;1.70;1.47;;;9.60;99.90;;;;;;4985986;28;20212;-74
2021/10/14 00:15:45;;;;;;;3.07;1.53;;;9.50;99.90;;;;;;4986199;28;20334;-74
2021/10/14 00:18:10;;;;;;;2.77;1.70;;;9.60;99.90;;;;;;5001005;28;20540;-75
2021/10/14 00:20:36;;;;;;;4.43;1.80;;;9.50;99.90;;;;;;4985860;28;20243;-74
2021/10/14 00:23:02;;;;;;;2.00;1.60;;;9.50;99.90;;;;;;4985557;28;20557;-75
2021/10/14 00:25:27;;;;;;;3.43;1.70;;;9.60;99.90;;;;;;4984719;28;20249;-75
2021/10/14 00:27:53;;;;;;;3.27;1.43;;;9.60;99.90;;;;;;4984639;28;20547;-75
2021/10/14 00:30:19;;;;;;;2.40;1.70;;;9.50;99.90;;;;;;4983619;28;20631;-75
2021/10/14 00:32:45;;;;;;;2.80;1.50;;;9.50;99.90;;;;;;4985606;28;20184;-74
2021/10/14 00:35:11;;;;;;;3.20;1.60;;;9.50;99.90;;;;;;4984071;28;20208;-72
2021/10/14 00:37:38;;;;;;;1.60;1.40;;;9.50;99.90;;;;;;4983101;28;20291;-74
2021/10/14 00:40:05;;;;;;;3.07;1.47;;;9.50;99.90;;;;;;4982673;28;20263;-76
2021/10/14 00:42:31;;;;;;;2.70;1.50;;;9.50;99.90;;;;;;4983033;28;20184;-76
2021/10/14 00:44:57;;;;;;;2.27;1.30;;;9.50;99.90;;;;;;4983650;28;20239;-76
2021/10/14 00:47:25;;;;;;;2.37;1.40;;;9.50;99.90;;;;;;4983428;28;20196;-76
2021/10/14 00:49:51;;;;;;;1.87;1.30;;;9.40;99.90;;;;;;4983748;28;20281;-76
2021/10/14 00:52:17;;;;;;;3.00;1.57;;;9.40;99.90;;;;;;4983408;28;20192;-74
2021/10/14 00:54:47;;;;;;;2.30;1.50;;;9.40;99.90;;;;;;4982243;28;20228;-75
2021/10/14 00:57:13;;;;;;;2.60;1.37;;;9.50;99.90;;;;;;4983675;28;20267;-72
2021/10/14 00:59:40;;;;;;;2.40;1.63;;;9.50;99.90;;;;;;4983048;28;20560;-73
2021/10/14 01:02:07;;;;;;;1.67;1.37;;;9.50;99.90;;;;;;4982819;28;20336;-74
2021/10/14 01:04:33;;;;;;;1.57;1.47;;;9.40;99.90;;;;;;4983772;28;20203;-76
2021/10/14 01:06:59;;;;;;;1.40;1.27;;;9.50;99.90;;;;;;4983856;28;20188;-76
2021/10/14 01:09:24;;;;;;;2.30;1.50;;;9.50;99.90;;;;;;4983541;28;20211;-76
2021/10/14 01:11:51;;;;;;;1.80;1.40;;;9.50;99.90;;;;;;4983368;28;20675;-76
2021/10/14 01:14:16;;;;;;;2.63;1.60;;;9.40;99.90;;;;;;4983540;28;20208;-76
2021/10/14 01:16:44;;;;;;;1.70;1.60;;;9.40;99.90;;;;;;4983943;28;20218;-74
2021/10/14 01:19:11;;;;;;;1.90;1.27;;;9.40;99.90;;;;;;4983890;28;20181;-75
2021/10/14 01:21:38;;;;;;;2.23;1.47;;;9.40;99.90;;;;;;4983452;28;20183;-73
2021/10/14 01:24:04;;;;;;;1.70;1.57;;;9.50;99.90;;;;;;4983735;28;20184;-73
2021/10/14 01:26:30;;;;;;;2.63;1.40;;;9.40;99.90;;;;;;4983335;28;20208;-76
2021/10/14 01:28:57;;;;;;;2.07;1.37;;;9.50;99.90;;;;;;4983206;28;20188;-72
2021/10/14 01:31:23;;;;;;;2.73;1.60;;;9.50;99.90;;;;;;4983524;28;20192;-76
2021/10/14 01:33:49;;;;;;;1.90;1.10;;;9.40;99.90;;;;;;4983302;28;20200;-73
2021/10/14 01:36:15;;;;;;;2.57;1.30;;;9.40;99.90;;;;;;4982585;28;20207;-73
2021/10/14 01:38:41;;;;;;;1.10;1.00;;;9.40;99.90;;;;;;4986925;28;20176;-76
2021/10/14 01:41:07;;;;;;;1.20;1.10;;;9.40;99.90;;;;;;4986897;28;20532;-73
2021/10/14 01:43:34;;;;;;;1.10;1.00;;;9.40;99.90;;;;;;4986371;28;20204;-76
2021/10/14 01:46:00;;;;;;;1.97;1.10;;;9.50;99.90;;;;;;4985676;28;20674;-75
2021/10/14 01:48:27;;;;;;;1.77;1.10;;;9.50;99.90;;;;;;4986394;28;20189;-76
2021/10/14 01:50:54;;;;;;;0.73;0.73;;;9.40;99.90;;;;;;4987099;28;20187;-76
2021/10/14 01:53:19;;;;;;;1.30;1.20;;;9.40;99.90;;;;;;4985994;28;20216;-76
2021/10/14 01:55:45;;;;;;;0.93;0.90;;;9.40;99.90;;;;;;4985579;28;20258;-75
2021/10/14 01:58:11;;;;;;;0.80;0.80;;;9.40;99.90;;;;;;4986313;28;20187;-75
2021/10/14 02:00:36;;;;;;;1.10;1.00;;;9.40;99.90;;;;;;4986733;28;20591;-74
2021/10/14 02:03:02;;;;;;;0.80;0.80;;;9.40;99.90;;;;;;4986072;28;20200;-73
2021/10/14 02:05:28;;;;;;;1.33;1.03;;;9.40;99.90;;;;;;4986479;28;20205;-72
2021/10/14 02:07:53;;;;;;;1.13;1.03;;;9.40;99.90;;;;;;4986072;28;20262;-76
2021/10/14 02:10:19;;;;;;;1.03;0.93;;;9.50;99.90;;;;;;4986151;28;20184;-75
2021/10/14 02:12:44;;;;;;;0.97;0.87;;;9.40;99.90;;;;;;4986345;28;20183;-76
2021/10/14 02:15:10;;;;;;;0.83;0.83;;;9.40;99.90;;;;;;4986379;28;20200;-72
2021/10/14 02:17:35;;;;;;;1.30;0.90;;;9.50;99.90;;;;;;4986583;28;20180;-76
2021/10/14 02:20:01;;;;;;;1.83;1.23;;;9.50;99.90;;;;;;4985839;28;20188;-75
2021/10/14 02:22:27;;;;;;;1.37;1.00;;;9.50;99.90;;;;;;4986231;28;20701;-76
2021/10/14 02:24:53;;;;;;;1.57;0.80;;;9.50;99.90;;;;;;5000820;28;20725;-76
2021/10/14 02:27:18;;;;;;;0.83;0.80;;;9.50;99.90;;;;;;4986558;28;20192;-76
2021/10/14 02:29:44;;;;;;;1.50;1.03;;;9.50;99.90;;;;;;4984517;28;20610;-75
2021/10/14 02:32:10;;;;;;;1.20;1.10;;;9.50;99.90;;;;;;4986284;28;20282;-73
2021/10/14 02:34:35;;;;;;;1.10;1.00;;;9.50;99.90;;;;;;4985779;28;20211;-76
2021/10/14 02:37:01;;;;;;;1.10;1.00;;;9.50;99.90;;;;;;4986167;28;20197;-76
2021/10/14 02:39:26;;;;;;;1.20;1.10;;;9.40;99.90;;;;;;4985498;28;20177;-74
2021/10/14 02:41:52;;;;;;;1.30;1.20;;;9.40;99.90;;;;;;4985634;28;20184;-73
2021/10/14 02:44:17;;;;;;;1.20;1.10;;;9.40;99.90;;;;;;4985392;28;20284;-76
2021/10/14 02:46:43;;;;;;;1.30;1.20;;;9.50;99.90;;;;;;4985506;28;20196;-76
2021/10/14 02:49:08;;;;;;;1.37;1.27;;;9.50;99.90;;;;;;4984615;28;20558;-76
2021/10/14 02:51:34;;;;;;;1.20;1.10;;;9.50;99.90;;;;;;4985606;28;20581;-73
2021/10/14 02:54:00;;;;;;;1.40;1.30;;;9.50;99.90;;;;;;4985451;28;20287;-76
2021/10/14 02:56:25;;;;;;;2.37;1.47;;;9.60;99.90;;;;;;4985884;28;20198;-75
2021/10/14 02:58:51;;;;;;;1.90;1.63;;;9.50;99.90;;;;;;4985377;28;20176;-74
2021/10/14 03:01:16;;;;;;;2.60;1.60;;;9.60;99.90;;;;;;4985338;28;20180;-73
2021/10/14 03:03:42;;;;;;;2.27;1.57;;;9.50;99.90;;;;;;4983912;28;20176;-73
2021/10/14 03:06:07;;;;;;;1.47;1.30;;;9.50;99.90;;;;;;4985704;28;20286;-76
2021/10/14 03:08:33;;;;;;;1.70;1.60;;;9.60;99.90;;;;;;4985299;28;20650;-75
2021/10/14 03:10:58;;;;;;;2.13;1.90;;;9.60;99.90;;;;;;4985115;28;20212;-73
2021/10/14 03:13:24;;;;;;;1.90;1.80;;;9.50;99.90;;;;;;4985112;28;20211;-74
2021/10/14 03:15:50;;;;;;;2.20;2.00;;;9.60;99.90;;;;;;4983225;28;20200;-75
2021/10/14 03:18:15;;;;;;;2.33;2.13;;;9.60;99.90;;;;;;4986147;28;20189;-75
2021/10/14 03:20:41;;;;;;;2.60;2.40;;;9.50;99.90;;;;;;4985997;28;20195;-75
2021/10/14 03:23:06;;;;;;;2.80;2.20;;;9.60;99.90;;;;;;4986478;28;20331;-76
2021/10/14 03:25:32;;;;;;;2.53;2.00;;;9.60;99.90;;;;;;4986966;28;20322;-75
2021/10/14 03:27:58;;;;;;;2.80;2.30;;;9.60;99.90;;;;;;4985995;28;20188;-75
2021/10/14 03:30:23;;;;;;;2.40;2.10;;;9.60;99.90;;;;;;4986398;28;20210;-75
2021/10/14 03:32:49;;;;;;;2.30;2.00;;;9.60;99.90;;;;;;4985970;28;20199;-75
2021/10/14 03:35:14;;;;;;;2.17;1.90;;;9.50;99.90;;;;;;4984840;28;20287;-76
2021/10/14 03:37:40;;;;;;;2.30;2.10;;;9.50;99.90;;;;;;4985865;28;20186;-76
2021/10/14 03:40:06;;;;;;;2.80;2.40;;;9.60;99.90;;;;;;4986766;28;20180;-76
2021/10/14 03:42:32;;;;;;;2.70;2.50;;;9.60;99.90;;;;;;4985126;28;20181;-76
2021/10/14 03:44:57;;;;;;;2.90;2.57;;;9.70;99.90;;;;;;4986501;28;20246;-76
2021/10/14 03:47:24;;;;;;;2.97;2.60;;;9.60;99.90;;;;;;4987408;28;20324;-74
2021/10/14 03:49:50;;;;;;;2.77;2.57;;;9.70;99.90;;;;;;4986934;28;20267;-77
2021/10/14 03:52:16;;;;;;;3.00;2.70;;;9.70;99.90;;;;;;4986989;28;20185;-76
2021/10/14 03:54:41;;;;;;;2.90;2.60;;;9.70;99.90;;;;;;4986167;28;20235;-78
2021/10/14 03:57:07;;;;;;;3.50;2.70;;;9.70;99.90;;;;;;4986866;28;20181;-76
2021/10/14 03:59:32;;;;;;;3.03;2.73;;;9.70;99.90;;;;;;4984328;28;20183;-77
2021/10/14 04:01:58;;;;;;;3.33;3.03;;;9.70;99.90;;;;;;4986310;28;20211;-77
2021/10/14 04:04:23;;;;;;;3.27;2.97;;;9.70;99.90;;;;;;4986189;28;20191;-77
2021/10/14 04:06:49;;;;;;;3.53;3.17;;;9.70;99.90;;;;;;4986159;28;20579;-75
2021/10/14 04:09:15;;;;;;;4.27;3.87;;;9.70;99.90;;;;;;4985480;28;20172;-75
2021/10/14 04:11:40;;;;;;;4.37;3.97;;;9.70;99.90;;;;;;4984588;28;20191;-76
2021/10/14 04:14:06;;;;;;;5.83;4.30;;;9.70;99.90;;;;;;4985162;28;20208;-76
2021/10/14 04:16:31;;;;;;;6.00;4.40;;;9.80;99.90;;;;;;4985164;28;20299;-74
2021/10/14 04:18:57;;;;;;;4.20;3.70;;;9.80;99.90;;;;;;4984941;28;20627;-77
2021/10/14 04:21:23;;;;;;;4.53;3.97;;;9.80;99.90;;;;;;4984980;28;20185;-76
2021/10/14 04:23:48;;;;;;;4.23;3.70;;;9.80;99.90;;;;;;4984939;28;20271;-77
2021/10/14 04:26:14;;;;;;;5.77;4.50;;;9.80;99.90;;;;;;4984897;28;20208;-75
2021/10/14 04:28:41;;;;;;;6.10;4.70;;;9.80;99.90;;;;;;4983760;28;20187;-75
2021/10/14 04:31:06;;;;;;;5.73;4.50;;;9.80;99.90;;;;;;4985112;28;20271;-76
2021/10/14 04:33:32;;;;;;;4.93;4.40;;;9.80;99.90;;;;;;4984876;28;20291;-74
2021/10/14 04:36:04;;;;;;;6.27;4.13;;;9.90;99.90;;;;;;4984717;28;20203;-77
2021/10/14 04:38:30;;;;;;;6.07;4.60;;;9.90;99.90;;;;;;4983678;28;20196;-76
2021/10/14 04:40:56;;;;;;;6.00;5.40;;;9.80;99.90;;;;;;4983428;28;20183;-76
2021/10/14 04:43:23;;;;;;;7.63;5.27;;;9.90;99.90;;;;;;4984645;28;20192;-77
2021/10/14 04:45:52;;;;;;;8.57;5.73;;;9.90;99.90;;;;;;4984727;28;20199;-77
2021/10/14 04:48:17;;;;;;;8.47;5.83;;;9.90;99.90;;;;;;4985212;28;20199;-77
2021/10/14 04:50:43;;;;;;;8.33;5.93;;;9.90;99.90;;;;;;4985505;28;20184;-74
2021/10/14 04:53:09;;;;;;;6.93;5.73;;;9.90;99.90;;;;;;4984451;28;20338;-74
2021/10/14 04:55:35;;;;;;;6.57;5.80;;;9.90;99.90;;;;;;4985023;28;20680;-74
2021/10/14 04:58:00;;;;;;;8.30;6.13;;;9.90;99.90;;;;;;4985057;28;21243;-75
2021/10/14 05:00:26;;;;;;;6.73;5.80;;;9.90;99.90;;;;;;4984858;28;20211;-77
2021/10/14 05:02:52;;;;;;;8.30;6.10;;;9.90;99.90;;;;;;4984950;28;20180;-76
2021/10/14 05:05:18;;;;;;;7.13;6.10;;;10.00;99.90;;;;;;4984431;28;20214;-76
2021/10/14 05:07:44;;;;;;;8.43;7.10;;;10.00;99.90;;;;;;4983286;28;20187;-75
2021/10/14 05:10:09;;;;;;;8.50;6.53;;;10.00;99.90;;;;;;4984692;28;20184;-76
2021/10/14 05:12:36;;;;;;;8.23;7.43;;;9.90;99.90;;;;;;4987000;28;20180;-77
2021/10/14 05:15:08;;;;;;;9.03;7.00;;;10.00;99.90;;;;;;4988534;28;20222;-76
2021/10/14 05:17:35;;;;;;;8.87;7.57;;;10.00;99.90;;;;;;4987245;28;20188;-75
2021/10/14 05:20:05;;;;;;;9.20;7.70;;;9.90;99.90;;;;;;4988170;28;20266;-77
2021/10/14 05:22:31;;;;;;;10.17;7.37;;;10.00;99.90;;;;;;4988294;28;21030;-77
2021/10/14 05:24:56;;;;;;;9.80;7.17;;;10.00;99.90;;;;;;4987050;28;20200;-76
2021/10/14 05:27:22;;;;;;;8.43;6.97;;;10.00;99.90;;;;;;4987417;28;20188;-74
2021/10/14 05:29:48;;;;;;;8.00;6.63;;;10.00;99.90;;;;;;4988306;28;20199;-77
2021/10/14 05:32:13;;;;;;;7.90;7.10;;;10.00;99.90;;;;;;4988698;28;20199;-75
2021/10/14 05:34:39;;;;;;;9.07;6.83;;;10.00;99.90;;;;;;4987257;28;20331;-73
2021/10/14 05:37:05;;;;;;;18.00;12.97;;;10.00;99.90;;;;;;4989055;28;20226;-77
2021/10/14 05:39:30;;;;;;;15.50;11.87;;;10.10;99.90;;;;;;4988368;28;20642;-75
2021/10/14 05:41:56;;;;;;;10.73;8.13;;;10.10;99.90;;;;;;4988430;28;20319;-77
2021/10/14 05:44:22;;;;;;;9.50;7.30;;;10.10;99.90;;;;;;4988599;28;20430;-77
2021/10/14 05:46:47;;;;;;;9.17;7.30;;;10.10;99.90;;;;;;4988214;28;20204;-76
2021/10/14 05:49:13;;;;;;;7.60;6.73;;;10.10;99.90;;;;;;4986806;28;20196;-75
2021/10/14 05:51:38;;;;;;;6.97;6.30;;;10.10;99.90;;;;;;4987805;28;20189;-76
2021/10/14 05:54:04;;;;;;;7.03;6.33;;;10.10;99.90;;;;;;4987835;28;20208;-77
2021/10/14 05:56:30;;;;;;;6.87;6.17;;;10.20;99.90;;;;;;4987334;28;20204;-75
2021/10/14 05:58:56;;;;;;;8.73;6.90;;;10.10;99.90;;;;;;4987240;28;20254;-76
2021/10/14 06:01:21;;;;;;;10.67;7.47;;;10.10;99.90;;;;;;4987299;28;20224;-76
2021/10/14 06:03:47;;;;;;;8.87;7.00;;;10.10;99.90;;;;;;4986521;28;20199;-76
2021/10/14 06:06:13;;;;;;;7.70;6.90;;;10.10;99.90;;;;;;4985175;28;20837;-77
2021/10/14 06:08:38;;;;;;;10.30;7.10;;;10.10;99.90;;;;;;4987076;28;20198;-77
2021/10/14 06:11:04;;;;;;;8.40;6.97;;;10.10;99.90;;;;;;4986137;28;21401;-76
2021/10/14 06:13:30;;;;;;;8.70;7.60;;;10.20;99.90;;;;;;4986488;28;20204;-75
2021/10/14 06:15:55;;;;;;;10.37;7.40;;;10.20;99.90;;;;;;4986993;28;20763;-74
2021/10/14 06:18:22;;;;;;;9.20;7.37;;;10.20;99.90;;;;;;4986309;28;20279;-75
2021/10/14 06:20:47;;;;;;;8.97;7.53;;;10.20;99.90;;;;;;4984229;28;20180;-75
2021/10/14 06:23:13;;;;;;;8.83;6.77;;;10.30;99.90;;;;;;4984449;28;20195;-76
2021/10/14 06:25:39;;;;;;;8.33;7.33;;;10.20;99.90;;;;;;4987041;28;20839;-76
2021/10/14 06:28:05;;;;;;;8.93;7.17;;;10.20;99.90;;;;;;4987568;28;20202;-75
2021/10/14 06:30:32;;;;;;;10.77;7.07;;;10.20;99.90;;;;;;4985459;28;20291;-76
2021/10/14 06:32:58;;;;;;;8.90;6.70;;;10.10;99.90;;;;;;4982122;28;20598;-78
2021/10/14 06:35:25;;;;;;;7.63;6.83;;;10.10;99.90;;;;;;5005094;28;20713;-79
2021/10/14 06:37:51;;;;;;;7.90;6.43;;;10.20;99.90;;;;;;4990345;28;20193;-73
2021/10/14 06:40:17;;;;;;;8.43;6.87;;;10.20;99.90;;;;;;4990869;28;20191;-79
2021/10/14 06:42:43;;;;;;;8.43;6.97;;;10.30;99.90;;;;;;4988746;28;20192;-74
2021/10/14 06:45:09;;;;;;;7.63;6.73;;;10.30;99.90;;;;;;4989209;28;20614;-79
2021/10/14 06:47:35;;;;;;;8.37;6.57;;;10.30;99.90;;;;;;4988429;28;20190;-75
2021/10/14 06:50:02;;;;;;;9.00;6.90;;;10.30;99.90;;;;;;4986716;28;20189;-73
2021/10/14 06:52:28;;;;;;;8.93;7.23;;;10.40;99.90;;;;;;4986625;28;20207;-74
2021/10/14 06:54:53;;;;;;;8.03;6.70;;;10.30;99.90;;;;;;4986120;28;20219;-73
2021/10/14 06:57:19;;;;;;;7.87;6.93;;;10.30;99.90;;;;;;4986287;28;20188;-77
2021/10/14 06:59:45;;;;;;;8.03;7.00;;;10.30;99.90;;;;;;4985894;28;20945;-76
2021/10/14 07:02:10;;;;;;;8.00;7.10;;;10.30;99.90;;;;;;4985979;28;20195;-76
2021/10/14 07:04:36;;;;;;;9.23;7.20;;;10.40;99.90;;;;;;4985950;28;20196;-76
2021/10/14 07:07:01;;;;;;;10.23;9.20;;;10.40;99.90;;;;;;4986151;28;20196;-76
2021/10/14 07:09:27;;;;;;;10.30;8.65;;;10.40;99.90;;;;;;4985623;28;20242;-75
2021/10/14 07:12:00;;;;;;;9.70;7.80;;;10.50;99.90;;;;;;4986208;28;20207;-77
2021/10/14 07:14:25;;;;;;;10.50;8.35;;;10.50;99.90;;;;;;4985425;28;20208;-76
2021/10/14 07:16:52;;;;;;;8.70;7.10;;;10.60;99.90;;;;;;4986112;28;20207;-77
2021/10/14 07:19:18;;;;;;;9.13;7.15;;;10.60;99.90;;;;;;4985873;28;20177;-76
2021/10/14 07:21:44;;;;;;;8.40;6.70;;;10.60;99.90;;;;;;4985747;28;20185;-76
2021/10/14 07:24:09;;;;;;;9.13;6.73;;;10.60;99.90;;;;;;4989882;28;20296;-78
2021/10/14 07:26:35;;;;;;;8.67;6.53;;;10.70;99.90;;;;;;4998688;28;20694;-79
2021/10/14 07:29:03;;;;;;;7.63;6.75;;;10.80;99.90;;;;;;4985104;28;20237;-74
2021/10/14 07:31:30;;;;;;;7.23;6.40;;;10.70;99.90;;;;;;4983949;28;20724;-76
2021/10/14 07:33:55;;;;;;;7.65;6.55;;;10.70;99.90;;;;;;4985140;28;20204;-73
2021/10/14 07:36:21;;;;;;;7.57;6.83;;;10.80;99.90;;;;;;4984497;28;20257;-77
2021/10/14 07:38:46;;;;;;;6.30;5.70;;;10.80;99.90;;;;;;4985565;28;21466;-77
2021/10/14 07:41:12;;;;;;;7.15;6.25;;;10.80;99.90;;;;;;4984849;28;20181;-76
2021/10/14 07:43:38;;;;;;;6.75;6.05;;;10.80;99.90;;;;;;4984716;28;20211;-75
2021/10/14 07:46:07;;;;;;;7.37;6.37;;;10.90;99.90;;;;;;4984031;28;20208;-76
2021/10/14 07:48:33;;;;;;;8.40;6.03;;;11.00;99.90;;;;;;4985699;28;20275;-75
2021/10/14 07:50:59;;;;;;;7.33;5.80;;;10.90;99.90;;;;;;4985529;28;20237;-77
2021/10/14 07:53:24;;;;;;;6.65;6.05;;;11.00;99.90;;;;;;4985546;28;20207;-76
2021/10/14 07:55:50;;;;;;;6.97;6.27;;;11.00;99.90;;;;;;4977078;28;20705;-75
2021/10/14 07:58:15;;;;;;;7.45;5.93;;;11.10;99.90;;;;;;4982091;28;20180;-77
2021/10/14 08:00:41;;;;;;;6.90;6.05;;;11.10;99.90;;;;;;4983958;28;20464;-76
2021/10/14 08:03:07;;;;;;;6.63;6.00;;;11.20;99.90;;;;;;4984922;28;20195;-77
2021/10/14 08:05:33;;;;;;;7.15;5.68;;;11.20;99.90;;;;;;4984406;28;20399;-78
2021/10/14 08:07:59;;;;;;;8.18;6.13;;;11.20;99.90;;;;;;4984075;28;20195;-75
2021/10/14 08:10:25;;;;;;;7.80;6.05;;;11.10;99.90;;;;;;4982061;28;20176;-76
2021/10/14 08:12:51;;;;;;;6.93;5.72;;;11.20;99.90;;;;;;4983018;28;20246;-76
2021/10/14 08:15:17;;;;;;;6.88;6.07;;;11.10;99.90;;;;;;4982698;28;20223;-75
2021/10/14 08:17:42;;;;;;;8.63;6.70;;;11.10;99.90;;;;;;4983520;28;20621;-74
2021/10/14 08:20:09;;;;;;;7.07;6.38;;;11.10;99.90;;;;;;4981920;28;20208;-77
2021/10/14 08:22:36;;;;;;;6.43;5.82;;;11.30;99.90;;;;;;4982367;28;20698;-74
2021/10/14 08:25:12;;;;;;;6.25;5.65;;;11.30;99.90;;;;;;4984078;28;20752;-77
2021/10/14 08:27:38;;;;;;;7.70;6.87;;;11.40;99.90;;;;;;4984156;28;20716;-76
2021/10/14 08:30:05;;;;;;;7.72;6.93;;;11.50;99.90;;;;;;4981612;28;21067;-74
2021/10/14 08:32:31;;;;;;;6.72;6.07;;;11.60;99.90;;;;;;4986160;28;20207;-75
2021/10/14 08:34:57;;;;;;;6.85;6.15;;;11.60;99.90;;;;;;4991110;28;20235;-77
2021/10/14 08:37:22;;;;;;;6.95;6.22;;;11.70;99.90;;;;;;4991657;28;20208;-74
2021/10/14 08:39:49;;;;;;;7.75;6.82;;;11.70;99.90;;;;;;4990613;28;20177;-77
2021/10/14 08:42:15;;;;;;;7.43;6.22;;;11.80;99.90;;;;;;4990942;28;20704;-73
2021/10/14 08:44:41;;;;;;;7.13;6.43;;;11.80;99.90;;;;;;4989532;28;20207;-76
2021/10/14 08:47:07;;;;;;;7.28;6.30;;;11.80;99.90;;;;;;4992942;28;20563;-73
2021/10/14 08:49:33;;;;;;;7.57;6.57;;;12.00;99.90;;;;;;4997930;28;20199;-75
2021/10/14 08:51:59;;;;;;;7.68;6.57;;;12.00;99.90;;;;;;4988150;28;20180;-75
2021/10/14 08:54:24;;;;;;;7.70;6.53;;;11.90;99.90;;;;;;4989607;28;20199;-76
2021/10/14 08:56:50;;;;;;;7.57;6.72;;;12.00;99.90;;;;;;4989149;28;20319;-77
2021/10/14 08:59:19;;;;;;;7.30;6.60;;;12.10;99.90;;;;;;4990102;28;20227;-75
2021/10/14 09:02:08;;;;;;;6.93;6.30;;;12.20;99.90;;;;;;4989528;28;20180;-75
2021/10/14 09:04:40;;;;;;;7.05;6.35;;;12.20;99.90;;;;;;4994693;28;20203;-75
2021/10/14 09:07:12;;;;;;;6.68;5.97;;;12.30;99.90;;;;;;4989742;28;20280;-77
2021/10/14 09:09:38;;;;;;;6.63;5.90;;;12.20;99.90;;;;;;4988960;28;20184;-78
2021/10/14 09:12:08;;;;;;;6.30;5.70;;;12.20;99.90;;;;;;4990137;28;20287;-76
2021/10/14 09:14:50;;;;;;;7.43;6.63;;;12.20;99.90;;;;;;4987987;28;20655;-76
2021/10/14 09:17:16;;;;;;;6.40;5.47;;;12.20;99.90;;;;;;4988349;28;20176;-76
2021/10/14 09:19:42;;;;;;;6.95;6.07;;;12.10;99.90;;;;;;4987879;28;20258;-74
2021/10/14 09:22:07;;;;;;;8.10;6.30;;;12.20;99.90;;;;;;4987733;28;20216;-76
2021/10/14 09:24:39;;;;;;;7.40;6.57;;;12.30;99.90;;;;;;4985511;28;20189;-76
2021/10/14 09:27:14;;;;;;;8.02;6.43;;;12.40;99.90;;;;;;4986855;28;20595;-74
2021/10/14 09:29:40;;;;;;;7.10;5.88;;;12.30;99.90;;;;;;4988308;28;20183;-77
2021/10/14 09:32:15;;;;;;;8.50;6.30;;;12.30;99.90;;;;;;4986958;28;20530;-75
2021/10/14 09:34:42;;;;;;;7.05;5.75;;;12.30;99.90;;;;;;4985328;28;20269;-77
2021/10/14 09:37:14;;;;;;;6.45;5.85;;;12.30;99.90;;;;;;4986411;28;20610;-74
2021/10/14 09:40:05;;;;;;;6.07;5.05;;;12.30;99.90;;;;;;4986721;28;20193;-76
2021/10/14 09:42:44;;;;;;;6.57;5.63;;;12.30;99.90;;;;;;4984557;28;20172;-76
2021/10/14 09:45:26;;;;;;;6.13;5.00;;;12.30;99.90;;;;;;4984586;28;20220;-77
2021/10/14 09:48:04;;;;;;;5.53;4.75;;;12.40;99.90;;;;;;4985039;28;20191;-77
2021/10/14 09:50:35;;;;;;;7.10;4.97;;;12.50;99.90;;;;;;4985564;28;20286;-74
2021/10/14 09:53:03;;;;;;;6.90;5.95;;;12.60;99.90;;;;;;4985630;28;20184;-76
2021/10/14 09:55:29;;;;;;;5.30;4.80;;;12.60;99.90;;;;;;4985282;28;20228;-76
2021/10/14 09:57:55;;;;;;;5.38;4.88;;;12.60;99.90;;;;;;4985143;28;20243;-77
2021/10/14 10:00:22;;;;;;;4.85;4.30;;;12.50;99.90;;;;;;4985182;28;20176;-74
2021/10/14 10:02:52;;;;;;;5.45;4.50;;;12.50;99.90;;;;;;4984241;28;20212;-77
2021/10/14 10:05:18;;;;;;;5.13;4.63;;;12.50;99.90;;;;;;4983686;28;20232;-77
2021/10/14 10:07:47;;;;;;;5.07;4.57;;;12.50;99.90;;;;;;4985561;28;20188;-76
2021/10/14 10:10:19;;;;;;;5.18;4.15;;;12.50;99.90;;;;;;4983855;28;20220;-74
2021/10/14 10:12:46;;;;;;;4.93;4.30;;;12.60;99.90;;;;;;4985313;28;20185;-75
2021/10/14 10:15:12;;;;;;;4.38;3.88;;;12.70;99.90;;;;;;4983477;28;20275;-76
2021/10/14 10:17:42;;;;;;;5.38;4.18;;;12.80;99.90;;;;;;4985436;28;20274;-77
2021/10/14 10:20:10;;;;;;;5.25;4.38;;;12.70;99.90;;;;;;4984389;28;20180;-76
2021/10/14 10:22:36;;;;;;;4.03;3.28;;;12.80;99.90;;;;;;4984069;28;20553;-76
2021/10/14 10:25:18;;;;;;;4.43;3.60;;;12.80;99.90;;;;;;4984143;28;20210;-74
2021/10/14 10:27:44;;;;;;;4.50;3.55;;;12.70;99.90;;;;;;4984696;28;20230;-76
2021/10/14 10:30:25;;;;;;;4.53;3.80;;;12.60;99.90;;;;;;4983703;28;20848;-76
2021/10/14 10:32:50;;;;;;;3.92;3.60;;;12.50;99.90;;;;;;4983456;28;20670;-74
2021/10/14 10:35:37;;;;;;;3.85;3.45;;;12.40;99.90;;;;;;4980539;28;20224;-76
2021/10/14 10:38:23;;;;;;;3.95;3.33;;;12.50;99.90;;;;;;4983004;28;20273;-76
2021/10/14 10:40:51;;;;;;;4.00;3.60;;;12.60;99.90;;;;;;4983911;28;20227;-76
2021/10/14 10:43:22;;;;;;;4.35;3.88;;;12.60;99.90;;;;;;4984217;28;20192;-77
2021/10/14 10:45:52;;;;;;;5.85;3.95;;;12.60;99.90;;;;;;4984109;28;20216;-75
2021/10/14 10:48:40;;;;;;;3.28;2.97;;;12.50;99.90;;;;;;4984408;28;20282;-74
2021/10/14 10:51:07;;;;;;;3.50;3.20;;;12.40;99.90;;;;;;4984086;28;20187;-77
2021/10/14 10:53:42;;;;;;;3.42;3.13;;;12.30;99.90;;;;;;4983616;28;20200;-74
2021/10/14 10:56:28;;;;;;;3.95;3.10;;;12.20;99.90;;;;;;4982905;28;20200;-76
2021/10/14 10:58:55;;;;;;;3.53;2.80;;;12.10;99.90;;;;;;4983779;28;20189;-76
2021/10/14 11:01:21;;;;;;;3.05;2.75;;;12.10;99.90;;;;;;4984403;28;20179;-76
2021/10/14 11:03:57;;;;;;;4.72;2.70;;;12.20;99.90;;;;;;4984644;28;21203;-76
2021/10/14 11:06:25;;;;;;;2.67;2.25;;;12.10;99.90;;;;;;4985753;28;20219;-76
2021/10/14 11:08:52;;;;;;;2.95;2.65;;;12.10;99.90;;;;;;4983583;28;20195;-73
2021/10/14 11:11:19;;;;;;;2.60;2.40;;;12.10;99.90;;;;;;4983892;28;20185;-73
2021/10/14 11:13:49;;;;;;;4.03;3.00;;;12.10;99.90;;;;;;4985426;28;20623;-75
2021/10/14 11:16:16;;;;;;;2.20;2.00;;;12.10;99.90;;;;;;4985530;28;20204;-74
2021/10/14 11:18:45;;;;;;;3.17;2.88;;;12.20;99.90;;;;;;4985471;28;20195;-76
2021/10/14 11:21:14;;;;;;;3.00;2.20;;;12.40;99.90;;;;;;4985010;28;20191;-76
2021/10/14 11:23:43;;;;;;;2.55;2.35;;;12.50;99.90;;;;;;4984897;28;20239;-76
2021/10/14 11:26:18;;;;;;;2.72;2.40;;;12.60;99.90;;;;;;4983974;28;20200;-76
2021/10/14 11:29:25;;;;;;;3.00;2.50;;;12.80;99.90;;;;;;4983591;28;20196;-75
2021/10/14 11:32:05;;;;;;;2.30;2.05;;;12.90;99.90;;;;;;4982017;28;20210;-76
2021/10/14 11:34:30;;;;;;;2.83;2.30;;;13.00;99.90;;;;;;4984716;28;20521;-76
2021/10/14 11:37:02;;;;;;;3.80;2.58;;;13.00;99.90;;;;;;4984686;28;20211;-73
2021/10/14 11:39:42;;;;;;;2.40;2.20;;;12.90;99.90;;;;;;4984400;28;20176;-76
2021/10/14 11:42:13;;;;;;;3.10;2.78;;;12.90;99.90;;;;;;4984779;28;20582;-77
2021/10/14 11:44:51;;;;;;;3.13;2.72;;;12.90;99.90;;;;;;4986964;28;20577;-77
2021/10/14 11:47:21;;;;;;;3.08;2.58;;;12.90;99.90;;;;;;4987923;28;20188;-76
2021/10/14 11:49:58;;;;;;;2.92;2.70;;;12.90;99.90;;;;;;4986721;28;20188;-77
2021/10/14 11:52:24;;;;;;;3.97;3.05;;;13.00;99.90;;;;;;4987116;28;20526;-77
2021/10/14 11:54:49;;;;;;;4.43;3.15;;;13.10;99.90;;;;;;4986790;28;20303;-78
2021/10/14 11:57:15;;;;;;;3.30;3.00;;;13.10;99.90;;;;;;4983383;28;20196;-73
2021/10/14 11:59:40;;;;;;;3.97;3.00;;;13.20;99.90;;;;;;4981991;28;20274;-76
2021/10/14 12:02:11;;;;;;;4.20;3.17;;;13.20;99.90;;;;;;4982296;28;20433;-77
2021/10/14 12:04:42;;;;;;;3.20;2.95;;;13.20;99.90;;;;;;4984290;28;20188;-78
2021/10/14 12:07:08;;;;;;;3.10;2.80;;;13.20;99.90;;;;;;4982929;28;20247;-76
2021/10/14 12:09:39;;;;;;;3.45;3.15;;;13.20;99.90;;;;;;4982805;28;20184;-76
2021/10/14 12:12:04;;;;;;;3.90;3.50;;;13.30;99.90;;;;;;4985377;28;20199;-76
2021/10/14 12:14:30;;;;;;;4.20;3.40;;;13.40;99.90;;;;;;4983915;28;20216;-75
2021/10/14 12:17:17;;;;;;;4.03;3.05;;;13.40;99.90;;;;;;4983589;28;20315;-76
2021/10/14 12:19:49;;;;;;;3.85;3.42;;;13.50;99.90;;;;;;4984897;28;20172;-76
2021/10/14 12:22:21;;;;;;;3.92;3.20;;;13.60;99.90;;;;;;4985304;28;20180;-75
2021/10/14 12:24:57;;;;;;;3.85;3.10;;;13.70;99.90;;;;;;4985228;28;20227;-76
2021/10/14 12:27:39;;;;;;;4.47;3.20;;;13.60;99.90;;;;;;4985430;28;20187;-75
2021/10/14 12:30:05;;;;;;;3.85;3.13;;;13.60;99.90;;;;;;4999121;28;20287;-74
2021/10/14 12:32:30;;;;;;;3.25;2.95;;;13.60;99.90;;;;;;4984178;28;20625;-74
2021/10/14 12:34:59;;;;;;;4.07;3.67;;;13.50;99.90;;;;;;4982211;28;20294;-75
2021/10/14 12:37:31;;;;;;;5.00;3.90;;;13.30;99.90;;;;;;4983391;28;20172;-76
2021/10/14 12:40:10;;;;;;;5.57;4.05;;;13.30;99.90;;;;;;4983124;28;20246;-75
2021/10/14 12:43:12;;;;;;;6.00;3.83;;;13.20;99.90;;;;;;4981980;28;20253;-76
2021/10/14 12:48:52;;;;;;;5.80;4.28;;;13.00;99.90;;;;;;4983252;28;20190;-75
2021/10/14 12:51:26;;;;;;;4.78;3.97;;;12.90;99.90;;;;;;4982907;28;20172;-75
2021/10/14 12:54:02;;;;;;;4.28;3.88;;;12.90;99.90;;;;;;4984002;28;20225;-76
2021/10/14 12:56:42;;;;;;;4.43;3.97;;;13.00;99.90;;;;;;4983673;28;20200;-76